createdAt,value
2019-04-25T00:01:36.515Z,45.78
2019-04-25T00:04:06.806Z,53.50
2019-04-25T00:06:37.238Z,39.67
2019-04-25T00:09:11.931Z,50.05
2019-04-25T00:11:43.670Z,49.88
2019-04-25T00:14:14.298Z,38.88
2019-04-25T00:16:45.374Z,40.10
2019-04-25T00:19:15.780Z,55.30
2019-04-25T00:22:05.241Z,55.83
2019-04-25T00:24:43.333Z,59.00
2019-04-25T00:27:14.270Z,45.73
2019-04-25T00:29:45.700Z,49.65
2019-04-25T00:32:16.034Z,51.80
2019-04-25T00:34:46.637Z,56.13
2019-04-25T00:37:16.838Z,61.88
2019-04-25T00:39:47.115Z,47.23
2019-04-25T00:42:17.417Z,48.30
2019-04-25T00:44:47.512Z,43.00
2019-04-25T00:47:17.667Z,48.52
2019-04-25T00:49:48.902Z,53.33
2019-04-25T00:52:18.993Z,50.17
2019-04-25T00:54:49.155Z,58.55
2019-04-25T00:57:19.317Z,55.33
2019-04-25T01:00:07.234Z,48.87
2019-04-25T01:05:13.480Z,50.92
2019-04-25T01:07:48.020Z,50.83
2019-04-25T01:10:21.435Z,49.25
2019-04-25T01:13:01.366Z,49.65
2019-04-25T01:15:31.866Z,48.90
2019-04-25T01:18:03.654Z,53.23
2019-04-25T01:20:34.494Z,54.10
2019-04-25T01:23:04.915Z,51.77
2019-04-25T01:25:40.920Z,46.55
2019-04-25T01:28:07.128Z,49.63
2019-04-25T01:30:37.280Z,48.25
2019-04-25T01:33:08.016Z,38.15
2019-04-25T01:35:53.620Z,41.90
2019-04-25T01:38:30.490Z,37.17
2019-04-25T01:43:53.245Z,42.30
2019-04-25T01:46:22.341Z,47.58
2019-04-25T01:48:54.212Z,53.70
2019-04-25T01:51:24.358Z,42.70
2019-04-25T01:53:55.465Z,44.63
2019-04-25T01:56:25.870Z,47.75
2019-04-25T01:58:57.373Z,41.15
2019-04-25T02:01:27.972Z,44.80
2019-04-25T02:03:59.028Z,36.13
2019-04-25T02:06:29.172Z,37.13
2019-04-25T02:08:59.426Z,45.95
2019-04-25T02:11:36.869Z,35.08
2019-04-25T02:14:07.280Z,34.40
2019-04-25T02:16:37.578Z,33.38
2019-04-25T02:19:07.746Z,32.73
2019-04-25T02:21:37.824Z,30.12
2019-04-25T02:24:08.979Z,40.35
2019-04-25T02:26:39.320Z,35.17
2019-04-25T02:29:09.639Z,85.62
2019-04-25T02:31:39.790Z,43.20
2019-04-25T02:34:09.910Z,34.65
2019-04-25T02:36:40.202Z,27.67
2019-04-25T02:39:16.717Z,42.83
2019-04-25T02:41:46.981Z,29.07
2019-04-25T02:44:17.271Z,35.88
2019-04-25T02:47:06.901Z,39.03
2019-04-25T02:49:55.816Z,30.45
2019-04-25T02:52:29.273Z,46.35
2019-04-25T02:55:00.389Z,34.85
2019-04-25T02:57:31.225Z,30.48
2019-04-25T03:00:02.714Z,41.70
2019-04-25T03:02:36.753Z,30.40
2019-04-25T03:05:09.765Z,33.18
2019-04-25T03:07:38.862Z,24.70
2019-04-25T03:10:10.973Z,30.95
2019-04-25T03:12:41.230Z,33.85
2019-04-25T03:15:11.744Z,30.43
2019-04-25T03:17:44.136Z,44.23
2019-04-25T03:20:21.174Z,45.78
2019-04-25T03:22:51.399Z,36.83
2019-04-25T03:25:21.564Z,36.55
2019-04-25T03:27:51.590Z,50.52
2019-04-25T03:30:21.738Z,44.23
2019-04-25T03:32:51.978Z,42.60
2019-04-25T03:35:23.289Z,46.40
2019-04-25T03:37:54.456Z,49.98
2019-04-25T03:40:24.712Z,41.75
2019-04-25T03:42:54.981Z,53.23
2019-04-25T03:45:25.140Z,42.53
2019-04-25T03:47:55.306Z,36.40
2019-04-25T03:50:25.596Z,39.85
2019-04-25T03:52:55.838Z,26.40
2019-04-25T03:55:26.086Z,34.13
2019-04-25T03:57:56.256Z,30.55
2019-04-25T04:00:26.273Z,29.32
2019-04-25T04:02:56.501Z,51.83
2019-04-25T04:05:26.735Z,38.30
2019-04-25T04:07:56.832Z,37.60
2019-04-25T04:10:27.052Z,35.65
2019-04-25T04:12:57.153Z,31.15
2019-04-25T04:15:27.381Z,33.13
2019-04-25T04:18:17.400Z,36.83
2019-04-25T04:20:49.117Z,33.65
2019-04-25T04:23:26.962Z,29.32
2019-04-25T04:25:57.291Z,28.25
2019-04-25T04:28:27.526Z,39.50
2019-04-25T04:30:57.545Z,36.13
2019-04-25T04:33:32.302Z,47.43
2019-04-25T04:36:01.250Z,36.98
2019-04-25T04:38:31.524Z,42.53
2019-04-25T04:41:01.717Z,42.08
2019-04-25T04:43:31.888Z,40.10
2019-04-25T04:46:02.002Z,41.90
2019-04-25T04:48:32.277Z,37.35
2019-04-25T04:51:03.415Z,32.05
2019-04-25T04:53:35.789Z,33.40
2019-04-25T04:56:05.444Z,31.82
2019-04-25T04:58:35.538Z,41.45
2019-04-25T05:01:05.704Z,32.23
2019-04-25T05:03:44.076Z,40.65
2019-04-25T05:06:31.720Z,33.95
2019-04-25T05:09:03.453Z,38.15
2019-04-25T05:11:33.815Z,33.05
2019-04-25T05:14:04.070Z,36.20
2019-04-25T05:16:34.261Z,32.60
2019-04-25T05:19:04.657Z,24.00
2019-04-25T05:21:34.890Z,33.25
2019-04-25T05:24:05.422Z,24.30
2019-04-25T05:26:35.589Z,22.65
2019-04-25T05:29:05.753Z,27.70
2019-04-25T05:31:40.385Z,26.42
2019-04-25T05:34:10.424Z,27.85
2019-04-25T05:36:40.593Z,23.18
2019-04-25T05:39:11.337Z,24.20
2019-04-25T05:41:46.173Z,23.05
2019-04-25T05:44:16.948Z,31.70
2019-04-25T05:46:48.114Z,23.20
2019-04-25T05:49:19.085Z,34.10
2019-04-25T05:51:49.460Z,28.92
2019-04-25T05:54:20.544Z,26.33
2019-04-25T05:56:50.880Z,37.70
2019-04-25T05:59:21.865Z,28.27
2019-04-25T06:01:53.687Z,31.62
2019-04-25T06:04:24.761Z,34.92
2019-04-25T06:06:55.874Z,28.17
2019-04-25T06:09:36.417Z,27.82
2019-04-25T06:12:20.432Z,26.57
2019-04-25T06:14:50.603Z,24.52
2019-04-25T06:17:31.099Z,27.82
2019-04-25T06:20:06.001Z,32.95
2019-04-25T06:22:36.631Z,30.15
2019-04-25T06:25:12.868Z,29.00
2019-04-25T06:27:43.534Z,32.40
2019-04-25T06:30:15.984Z,38.55
2019-04-25T06:32:46.211Z,33.02
2019-04-25T06:35:17.440Z,33.48
2019-04-25T06:37:47.569Z,34.70
2019-04-25T06:40:18.422Z,29.25
2019-04-25T06:42:48.644Z,36.63
2019-04-25T06:45:26.629Z,32.63
2019-04-25T06:48:04.074Z,39.63
2019-04-25T06:53:05.375Z,35.40
2019-04-25T06:55:35.565Z,42.88
2019-04-25T06:58:12.101Z,39.80
2019-04-25T07:00:42.637Z,45.65
2019-04-25T07:03:09.678Z,46.50
2019-04-25T07:05:41.000Z,49.63
2019-04-25T07:08:11.300Z,36.83
2019-04-25T07:10:44.378Z,51.40
2019-04-25T07:13:14.419Z,41.00
2019-04-25T07:15:44.649Z,41.90
2019-04-25T07:18:14.886Z,41.90
2019-04-25T07:20:45.417Z,45.43
2019-04-25T07:23:15.657Z,43.10
2019-04-25T07:25:47.582Z,49.03
2019-04-25T07:28:37.316Z,38.80
2019-04-25T07:31:17.878Z,42.95
2019-04-25T07:33:53.262Z,54.42
2019-04-25T07:36:23.639Z,46.42
2019-04-25T07:39:05.146Z,44.80
2019-04-25T07:41:26.023Z,51.75
2019-04-25T07:43:56.321Z,48.15
2019-04-25T07:46:27.750Z,49.18
2019-04-25T07:48:58.111Z,42.78
2019-04-25T07:51:28.495Z,57.13
2019-04-25T07:54:00.137Z,45.52
2019-04-25T07:56:31.356Z,32.65
2019-04-25T07:59:01.802Z,42.75
2019-04-25T08:01:33.760Z,38.35
2019-04-25T08:04:05.978Z,42.43
2019-04-25T08:06:36.233Z,46.80
2019-04-25T08:09:09.876Z,52.27
2019-04-25T08:11:41.381Z,44.98
2019-04-25T08:14:18.814Z,34.85
2019-04-25T08:16:57.427Z,38.55
2019-04-25T08:19:27.695Z,39.98
2019-04-25T08:22:04.002Z,45.45
2019-04-25T08:24:37.115Z,43.75
2019-04-25T08:27:09.019Z,41.60
2019-04-25T08:29:41.377Z,35.95
2019-04-25T08:32:11.624Z,31.50
2019-04-25T08:34:44.640Z,48.50
2019-04-25T08:37:18.863Z,36.93
2019-04-25T08:39:46.649Z,28.57
2019-04-25T08:42:16.826Z,36.55
2019-04-25T08:44:47.008Z,40.17
2019-04-25T08:47:17.238Z,37.35
2019-04-25T08:49:49.598Z,34.83
2019-04-25T08:52:19.811Z,35.63
2019-04-25T08:54:54.636Z,31.07
2019-04-25T08:57:26.983Z,35.55
2019-04-25T09:00:01.677Z,33.20
2019-04-25T09:02:40.807Z,39.13
2019-04-25T09:05:19.738Z,30.17
2019-04-25T09:07:50.049Z,40.15
2019-04-25T09:10:20.378Z,24.95
2019-04-25T09:12:50.710Z,32.98
2019-04-25T09:15:21.633Z,36.75
2019-04-25T09:17:51.870Z,28.02
2019-04-25T09:20:23.603Z,36.30
2019-04-25T09:25:48.947Z,31.10
2019-04-25T09:28:19.268Z,33.42
2019-04-25T09:30:49.561Z,29.57
2019-04-25T09:33:19.757Z,32.88
2019-04-25T09:35:50.032Z,34.78
2019-04-25T09:38:20.319Z,32.78
2019-04-25T09:40:50.711Z,33.00
2019-04-25T09:43:23.495Z,26.40
2019-04-25T09:46:10.401Z,30.60
2019-04-25T09:48:48.649Z,27.50
2019-04-25T09:51:23.562Z,30.12
2019-04-25T09:54:04.219Z,23.55
2019-04-25T09:56:38.875Z,27.52
2019-04-25T09:59:10.704Z,31.30
2019-04-25T10:01:43.977Z,26.33
2019-04-25T10:04:15.234Z,33.95
2019-04-25T10:06:46.061Z,25.72
2019-04-25T10:09:16.493Z,29.95
2019-04-25T10:11:46.777Z,25.80
2019-04-25T10:14:20.024Z,26.65
2019-04-25T10:16:50.169Z,27.10
2019-04-25T10:19:21.423Z,30.05
2019-04-25T10:21:53.438Z,23.45
2019-04-25T10:24:24.416Z,24.57
2019-04-25T10:26:54.822Z,30.48
2019-04-25T10:29:25.269Z,27.52
2019-04-25T10:31:56.442Z,27.52
2019-04-25T10:34:26.965Z,29.10
2019-04-25T10:36:57.207Z,23.80
2019-04-25T10:39:31.073Z,28.67
2019-04-25T10:42:03.480Z,25.37
2019-04-25T10:44:34.401Z,29.10
2019-04-25T10:47:04.819Z,23.92
2019-04-25T10:49:35.172Z,19.67
2019-04-25T10:52:06.565Z,28.65
2019-04-25T10:54:36.815Z,27.20
2019-04-25T10:57:07.089Z,25.90
2019-04-25T10:59:38.343Z,30.80
2019-04-25T11:02:09.532Z,32.83
2019-04-25T11:04:47.023Z,26.48
2019-04-25T11:07:15.902Z,26.68
2019-04-25T11:09:47.127Z,31.30
2019-04-25T11:12:18.858Z,28.50
2019-04-25T11:14:53.314Z,29.07
2019-04-25T11:17:24.718Z,27.02
2019-04-25T11:19:55.474Z,27.20
2019-04-25T11:22:25.777Z,28.57
2019-04-25T11:24:56.115Z,28.87
2019-04-25T11:27:26.631Z,29.82
2019-04-25T11:30:08.459Z,22.40
2019-04-25T11:32:29.018Z,28.35
2019-04-25T11:35:00.796Z,31.70
2019-04-25T11:37:34.190Z,30.65
2019-04-25T11:40:09.135Z,27.30
2019-04-25T11:42:39.630Z,26.77
2019-04-25T11:48:16.310Z,27.90
2019-04-25T11:50:55.774Z,27.22
2019-04-25T11:53:26.024Z,24.45
2019-04-25T11:55:59.107Z,23.10
2019-04-25T11:58:36.525Z,25.35
2019-04-25T12:01:07.554Z,33.70
2019-04-25T12:03:37.998Z,28.27
2019-04-25T12:09:17.955Z,23.87
2019-04-25T12:11:48.601Z,24.15
2019-04-25T12:14:43.219Z,22.67
2019-04-25T12:17:14.967Z,27.22
2019-04-25T12:19:47.078Z,33.92
2019-04-25T12:22:17.367Z,31.77
2019-04-25T12:24:47.924Z,30.20
2019-04-25T12:27:18.187Z,28.05
2019-04-25T12:29:48.405Z,27.85
2019-04-25T12:32:18.703Z,35.40
2019-04-25T12:34:49.493Z,26.00
2019-04-25T12:37:19.665Z,20.10
2019-04-25T12:39:50.896Z,32.70
2019-04-25T12:42:21.158Z,27.40
2019-04-25T12:44:56.149Z,25.37
2019-04-25T12:47:36.912Z,26.57
2019-04-25T12:50:07.264Z,32.25
2019-04-25T12:52:37.563Z,25.92
2019-04-25T12:55:07.791Z,24.45
2019-04-25T12:57:38.025Z,36.13
2019-04-25T13:00:08.557Z,42.33
2019-04-25T13:02:38.802Z,76.60
2019-04-25T13:05:09.053Z,44.35
2019-04-25T13:07:39.985Z,38.90
2019-04-25T13:10:10.709Z,29.90
2019-04-25T13:12:40.953Z,36.10
2019-04-25T13:15:11.291Z,33.70
2019-04-25T13:17:41.544Z,36.10
2019-04-25T13:20:11.970Z,33.02
2019-04-25T13:22:43.241Z,41.20
2019-04-25T13:25:15.955Z,34.63
2019-04-25T13:27:47.808Z,32.20
2019-04-25T13:30:19.615Z,29.65
2019-04-25T13:32:51.799Z,38.30
2019-04-25T13:35:29.409Z,34.23
2019-04-25T13:37:59.725Z,34.30
2019-04-25T13:40:29.829Z,33.38
2019-04-25T13:43:00.107Z,36.15
2019-04-25T13:45:30.641Z,29.80
2019-04-25T13:48:00.798Z,28.75
2019-04-25T13:50:31.958Z,29.72
2019-04-25T13:53:03.343Z,33.00
2019-04-25T13:55:34.662Z,33.92
2019-04-25T13:58:05.323Z,34.05
2019-04-25T14:00:36.410Z,33.95
2019-04-25T14:03:06.608Z,35.58
2019-04-25T14:05:37.067Z,29.50
2019-04-25T14:08:07.375Z,31.00
2019-04-25T14:10:37.678Z,36.70
2019-04-25T14:13:09.519Z,33.38
2019-04-25T14:15:41.418Z,37.45
2019-04-25T14:18:29.181Z,36.90
2019-04-25T14:21:09.893Z,33.18
2019-04-25T14:23:41.566Z,32.95
2019-04-25T14:26:14.154Z,38.95
2019-04-25T14:28:46.603Z,42.17
2019-04-25T14:31:35.166Z,31.90
2019-04-25T14:34:05.622Z,37.08
2019-04-25T14:36:39.186Z,37.33
2019-04-25T14:39:13.932Z,37.78
2019-04-25T14:41:44.248Z,38.70
2019-04-25T14:44:14.469Z,44.67
2019-04-25T14:46:44.787Z,36.83
2019-04-25T14:49:15.020Z,22.70
2019-04-25T14:51:45.856Z,24.60
2019-04-25T14:54:17.816Z,24.27
2019-04-25T14:56:49.721Z,25.43
2019-04-25T14:59:22.056Z,23.47
2019-04-25T15:01:51.948Z,22.27
2019-04-25T15:04:22.944Z,25.30
2019-04-25T15:06:54.068Z,19.10
2019-04-25T15:09:27.174Z,18.87
2019-04-25T15:12:00.232Z,23.65
2019-04-25T15:14:43.610Z,17.82
2019-04-25T15:17:16.022Z,21.73
2019-04-25T15:19:46.242Z,25.23
2019-04-25T15:22:16.959Z,25.82
2019-04-25T15:24:47.127Z,31.60
2019-04-25T15:27:17.484Z,26.82
2019-04-25T15:29:48.077Z,29.57
2019-04-25T15:32:19.944Z,29.45
2019-04-25T15:34:59.539Z,31.35
2019-04-25T15:37:32.533Z,29.65
2019-04-25T15:40:17.708Z,28.32
2019-04-25T15:43:14.351Z,31.90
2019-04-25T15:45:53.651Z,37.93
2019-04-25T15:48:35.758Z,25.85
2019-04-25T15:51:10.022Z,29.18
2019-04-25T15:53:40.329Z,31.68
2019-04-25T15:56:10.544Z,27.98
2019-04-25T15:58:41.609Z,26.68
2019-04-25T16:01:12.054Z,23.22
2019-04-25T16:03:42.213Z,25.55
2019-04-25T16:06:12.354Z,22.13
2019-04-25T16:08:42.589Z,22.42
2019-04-25T16:11:12.868Z,27.17
2019-04-25T16:13:43.034Z,26.30
2019-04-25T16:16:13.365Z,24.12
2019-04-25T16:18:43.532Z,27.55
2019-04-25T16:21:14.300Z,24.50
2019-04-25T16:23:44.460Z,17.25
2019-04-25T16:26:14.558Z,19.82
2019-04-25T16:28:44.727Z,21.07
2019-04-25T16:31:16.501Z,18.30
2019-04-25T16:33:46.850Z,16.85
2019-04-25T16:36:17.025Z,13.22
2019-04-25T16:38:47.261Z,20.27
2019-04-25T16:41:17.481Z,18.07
2019-04-25T16:43:49.377Z,18.65
2019-04-25T16:46:20.657Z,13.95
2019-04-25T16:48:50.893Z,19.50
2019-04-25T16:51:21.616Z,18.02
2019-04-25T16:53:51.919Z,20.97
2019-04-25T16:56:23.136Z,20.32
2019-04-25T16:58:53.369Z,17.07
2019-04-25T17:01:23.586Z,12.73
2019-04-25T17:03:53.750Z,17.17
2019-04-25T17:06:24.140Z,15.83
2019-04-25T17:08:54.376Z,12.00
2019-04-25T17:11:24.609Z,12.30
2019-04-25T17:13:58.898Z,11.75
2019-04-25T17:16:33.382Z,10.03
2019-04-25T17:19:05.160Z,12.70
2019-04-25T17:21:35.575Z,11.55
2019-04-25T17:24:05.892Z,17.75
2019-04-25T17:26:36.822Z,15.70
2019-04-25T17:29:08.659Z,12.53
2019-04-25T17:31:40.454Z,13.48
2019-04-25T17:34:14.907Z,14.45
2019-04-25T17:36:52.409Z,18.57
2019-04-25T17:39:24.189Z,8.70
2019-04-25T17:41:54.522Z,17.37
2019-04-25T17:44:24.738Z,11.85
2019-04-25T17:47:05.855Z,12.23
2019-04-25T17:49:26.813Z,16.27
2019-04-25T17:51:56.914Z,11.25
2019-04-25T17:54:27.073Z,11.00
2019-04-25T17:56:57.324Z,12.75
2019-04-25T17:59:27.472Z,12.73
2019-04-25T18:01:57.709Z,11.88
2019-04-25T18:04:27.939Z,15.95
2019-04-25T18:06:58.184Z,14.28
2019-04-25T18:09:28.402Z,10.25
2019-04-25T18:11:58.485Z,14.98
2019-04-25T18:14:28.657Z,15.13
2019-04-25T18:16:58.814Z,13.90
2019-04-25T18:19:34.026Z,12.50
2019-04-25T18:22:09.879Z,13.75
2019-04-25T18:24:56.317Z,17.05
2019-04-25T18:27:33.701Z,14.70
2019-04-25T18:30:06.896Z,14.00
2019-04-25T18:32:39.148Z,16.62
2019-04-25T18:35:10.950Z,11.38
2019-04-25T18:37:42.728Z,12.95
2019-04-25T18:40:26.401Z,12.90
2019-04-25T18:43:03.785Z,14.43
2019-04-25T18:45:35.863Z,13.32
2019-04-25T18:48:07.093Z,11.78
2019-04-25T18:50:38.293Z,13.72
2019-04-25T18:53:19.088Z,13.13
2019-04-25T18:55:56.619Z,16.02
2019-04-25T18:58:30.868Z,13.78
2019-04-25T19:01:17.484Z,14.03
2019-04-25T19:03:55.034Z,15.65
2019-04-25T19:06:26.913Z,14.55
2019-04-25T19:08:58.061Z,12.73
2019-04-25T19:11:28.359Z,13.00
2019-04-25T19:13:58.581Z,12.93
2019-04-25T19:16:28.746Z,13.65
2019-04-25T19:18:58.831Z,15.23
2019-04-25T19:21:29.046Z,15.70
2019-04-25T19:23:59.293Z,12.10
2019-04-25T19:26:29.517Z,19.20
2019-04-25T19:28:59.760Z,16.12
2019-04-25T19:31:30.077Z,15.18
2019-04-25T19:34:00.159Z,13.50
2019-04-25T19:36:30.479Z,15.28
2019-04-25T19:39:00.766Z,14.80
2019-04-25T19:41:34.088Z,15.45
2019-04-25T19:44:05.985Z,17.25
2019-04-25T19:46:44.825Z,15.70
2019-04-25T19:49:16.023Z,11.30
2019-04-25T19:51:47.177Z,17.75
2019-04-25T19:54:17.422Z,10.98
2019-04-25T19:56:47.593Z,16.45
2019-04-25T19:59:17.825Z,13.20
2019-04-25T20:01:50.588Z,15.58
2019-04-25T20:04:32.272Z,18.23
2019-04-25T20:07:13.998Z,12.18
2019-04-25T20:09:54.480Z,13.93
2019-04-25T20:12:29.809Z,12.33
2019-04-25T20:15:00.046Z,14.75
2019-04-25T20:17:30.142Z,13.62
2019-04-25T20:20:00.378Z,17.85
2019-04-25T20:22:30.596Z,15.58
2019-04-25T20:25:00.695Z,14.47
2019-04-25T20:27:30.705Z,19.82
2019-04-25T20:30:00.883Z,13.58
2019-04-25T20:32:31.101Z,12.45
2019-04-25T20:35:01.381Z,15.55
2019-04-25T20:37:31.596Z,13.20
2019-04-25T20:40:01.742Z,13.15
2019-04-25T20:42:33.222Z,19.65
2019-04-25T20:45:03.810Z,15.93
2019-04-25T20:47:33.964Z,13.15
2019-04-25T20:50:05.689Z,12.95
2019-04-25T20:52:38.080Z,19.27
2019-04-25T20:55:07.836Z,14.87
2019-04-25T20:57:37.920Z,16.35
2019-04-25T21:00:08.540Z,14.85
2019-04-25T21:02:38.874Z,14.50
2019-04-25T21:05:10.089Z,20.15
2019-04-25T21:07:40.130Z,15.90
2019-04-25T21:10:10.349Z,20.05
2019-04-25T21:12:40.514Z,16.65
2019-04-25T21:15:24.439Z,16.87
2019-04-25T21:17:56.351Z,15.43
2019-04-25T21:20:26.480Z,20.35
2019-04-25T21:22:56.585Z,19.23
2019-04-25T21:25:26.792Z,19.90
2019-04-25T21:27:56.904Z,19.25
2019-04-25T21:30:27.057Z,19.77
2019-04-25T21:32:57.459Z,18.77
2019-04-25T21:35:27.856Z,19.02
2019-04-25T21:37:58.025Z,31.25
2019-04-25T21:40:32.607Z,23.62
2019-04-25T21:43:10.398Z,32.53
2019-04-25T21:45:40.929Z,28.38
2019-04-25T21:48:11.288Z,26.05
2019-04-25T21:50:41.640Z,25.02
2019-04-25T21:53:12.062Z,18.57
2019-04-25T21:55:42.556Z,20.35
2019-04-25T21:58:13.349Z,17.35
2019-04-25T22:00:58.164Z,16.93
2019-04-25T22:03:30.000Z,17.73
2019-04-25T22:06:00.734Z,22.25
2019-04-25T22:08:32.020Z,18.25
2019-04-25T22:11:02.186Z,17.23
2019-04-25T22:13:32.480Z,23.47
2019-04-25T22:16:03.820Z,21.60
2019-04-25T22:18:34.377Z,19.07
2019-04-25T22:21:05.130Z,19.85
2019-04-25T22:23:35.610Z,19.35
2019-04-25T22:26:06.179Z,22.22
2019-04-25T22:28:37.117Z,20.00
2019-04-25T22:31:13.041Z,22.07
2019-04-25T22:33:47.476Z,19.45
2019-04-25T22:36:19.513Z,18.30
2019-04-25T22:38:51.308Z,20.45
2019-04-25T22:41:21.401Z,20.45
2019-04-25T22:43:53.485Z,18.48
2019-04-25T22:46:27.917Z,25.27
2019-04-25T22:48:55.645Z,23.02
2019-04-25T22:51:25.742Z,21.42
2019-04-25T22:53:56.133Z,22.42
2019-04-25T22:56:26.164Z,23.85
2019-04-25T22:58:56.249Z,25.75
2019-04-25T23:01:30.751Z,23.18
2019-04-25T23:04:05.391Z,22.32
2019-04-25T23:06:37.005Z,26.62
2019-04-25T23:09:08.176Z,26.97
2019-04-25T23:11:38.468Z,26.15
2019-04-25T23:14:08.900Z,26.97
2019-04-25T23:16:39.155Z,24.70
2019-04-25T23:19:09.282Z,28.87
2019-04-25T23:21:39.628Z,24.63
2019-04-25T23:24:09.917Z,27.22
2019-04-25T23:26:42.031Z,30.20
2019-04-25T23:29:12.504Z,28.67
2019-04-25T23:31:42.667Z,29.80
2019-04-25T23:34:13.135Z,28.62
2019-04-25T23:36:43.289Z,27.52
2019-04-25T23:39:13.428Z,25.27
2019-04-25T23:41:43.823Z,25.40
2019-04-25T23:44:14.064Z,23.38
2019-04-25T23:46:44.588Z,27.37
2019-04-25T23:49:14.877Z,28.30
2019-04-25T23:51:45.173Z,25.30
2019-04-25T23:54:15.342Z,22.37
2019-04-25T23:56:45.497Z,27.62
2019-04-25T23:59:15.867Z,21.70
